createdAt,value
2019-04-25T00:00:15.840Z,77.90
2019-04-25T00:02:44.743Z,78.38
2019-04-25T00:05:14.015Z,79.54
2019-04-25T00:07:43.041Z,81.76
2019-04-25T00:10:11.729Z,80.84
2019-04-25T00:12:42.373Z,80.51
2019-04-25T00:15:11.174Z,80.58
2019-04-25T00:17:38.605Z,80.97
2019-04-25T00:20:07.035Z,81.45
2019-04-25T00:22:47.507Z,81.80
2019-04-25T00:25:32.489Z,83.70
2019-04-25T00:27:59.839Z,84.35
2019-04-25T00:30:28.580Z,83.74
2019-04-25T00:32:55.453Z,83.50
2019-04-25T00:35:22.412Z,83.59
2019-04-25T00:37:49.867Z,83.32
2019-04-25T00:40:16.752Z,83.76
2019-04-25T00:42:44.880Z,84.24
2019-04-25T00:45:13.983Z,84.71
2019-04-25T00:47:42.447Z,85.19
2019-04-25T00:50:09.652Z,85.45
2019-04-25T00:52:37.093Z,85.13
2019-04-25T00:55:04.957Z,85.41
2019-04-25T00:57:32.830Z,85.51
2019-04-25T01:00:01.989Z,86.57
2019-04-25T01:02:31.509Z,86.12
2019-04-25T01:04:58.819Z,86.29
2019-04-25T01:07:25.872Z,86.23
2019-04-25T01:09:54.605Z,87.66
2019-04-25T01:12:24.821Z,87.31
2019-04-25T01:14:52.801Z,87.80
2019-04-25T01:17:22.740Z,87.52
2019-04-25T01:19:51.046Z,88.08
2019-04-25T01:22:18.019Z,88.02
2019-04-25T01:24:45.664Z,88.10
2019-04-25T01:27:13.490Z,87.94
2019-04-25T01:29:40.510Z,87.88
2019-04-25T01:32:09.242Z,88.05
2019-04-25T01:34:38.598Z,88.14
2019-04-25T01:37:07.841Z,88.44
2019-04-25T01:39:39.354Z,88.39
2019-04-25T01:42:11.832Z,88.45
2019-04-25T01:44:40.593Z,89.01
2019-04-25T01:47:08.229Z,91.19
2019-04-25T01:49:35.380Z,92.95
2019-04-25T01:52:03.536Z,92.63
2019-04-25T01:54:31.580Z,92.85
2019-04-25T01:56:59.334Z,91.76
2019-04-25T01:59:26.403Z,91.25
2019-04-25T02:01:55.373Z,91.48
2019-04-25T02:04:23.190Z,92.37
2019-04-25T02:06:51.368Z,92.32
2019-04-25T02:09:19.362Z,93.44
2019-04-25T02:11:50.944Z,95.57
2019-04-25T02:14:18.021Z,97.76
2019-04-25T02:16:45.500Z,99.22
2019-04-25T02:19:14.525Z,99.73
2019-04-25T02:21:43.443Z,99.38
2019-04-25T02:24:11.107Z,98.89
2019-04-25T02:26:39.012Z,97.62
2019-04-25T02:29:06.070Z,96.32
2019-04-25T02:31:34.723Z,95.33
2019-04-25T02:34:06.179Z,94.70
2019-04-25T02:36:34.481Z,93.93
2019-04-25T02:39:04.274Z,92.90
2019-04-25T02:41:30.848Z,92.13
2019-04-25T02:44:03.782Z,91.76
2019-04-25T02:46:36.851Z,91.70
2019-04-25T02:49:09.045Z,91.46
2019-04-25T02:51:35.768Z,92.13
2019-04-25T02:54:07.537Z,93.51
2019-04-25T02:56:37.743Z,93.97
2019-04-25T02:59:06.486Z,93.89
2019-04-25T03:01:34.214Z,93.35
2019-04-25T03:04:04.853Z,92.72
2019-04-25T03:06:31.672Z,92.25
2019-04-25T03:09:00.295Z,91.68
2019-04-25T03:11:28.141Z,91.85
2019-04-25T03:13:56.133Z,91.76
2019-04-25T03:16:25.110Z,91.92
2019-04-25T03:18:58.913Z,91.36
2019-04-25T03:21:31.521Z,91.44
2019-04-25T03:24:01.330Z,91.92
2019-04-25T03:26:39.671Z,92.24
2019-04-25T03:28:59.725Z,92.74
2019-04-25T03:31:27.693Z,92.13
2019-04-25T03:33:56.100Z,91.53
2019-04-25T03:36:23.881Z,92.01
2019-04-25T03:38:51.479Z,91.83
2019-04-25T03:41:19.113Z,92.37
2019-04-25T03:43:46.732Z,92.56
2019-04-25T03:46:14.397Z,92.34
2019-04-25T03:48:42.101Z,92.66
2019-04-25T03:51:12.250Z,92.02
2019-04-25T03:53:41.757Z,91.75
2019-04-25T03:56:10.406Z,91.69
2019-04-25T03:58:37.863Z,91.87
2019-04-25T04:01:06.969Z,91.95
2019-04-25T04:03:34.333Z,92.00
2019-04-25T04:06:01.999Z,92.19
2019-04-25T04:08:29.651Z,92.13
2019-04-25T04:10:57.245Z,92.25
2019-04-25T04:13:24.956Z,92.46
2019-04-25T04:15:53.301Z,92.90
2019-04-25T04:18:34.558Z,93.38
2019-04-25T04:21:20.619Z,93.47
2019-04-25T04:24:02.062Z,93.30
2019-04-25T04:26:29.771Z,93.34
2019-04-25T04:28:57.657Z,94.72
2019-04-25T04:31:25.513Z,96.82
2019-04-25T04:33:53.350Z,97.46
2019-04-25T04:36:21.063Z,96.71
2019-04-25T04:38:49.134Z,96.15
2019-04-25T04:41:17.846Z,96.10
2019-04-25T04:43:45.396Z,96.67
2019-04-25T04:46:14.175Z,96.43
2019-04-25T04:48:43.861Z,96.42
2019-04-25T04:51:11.235Z,96.52
2019-04-25T04:53:38.027Z,97.18
2019-04-25T04:56:05.408Z,97.44
2019-04-25T04:58:34.300Z,97.89
2019-04-25T05:01:01.842Z,98.25
2019-04-25T05:03:40.819Z,98.26
2019-04-25T05:06:25.180Z,98.38
2019-04-25T05:08:54.930Z,98.92
2019-04-25T05:11:25.197Z,98.99
2019-04-25T05:13:52.003Z,98.42
2019-04-25T05:16:19.843Z,98.11
2019-04-25T05:18:46.981Z,97.73
2019-04-25T05:21:15.657Z,97.41
2019-04-25T05:23:44.339Z,97.33
2019-04-25T05:26:12.206Z,97.36
2019-04-25T05:28:40.391Z,97.46
2019-04-25T05:31:09.492Z,97.34
2019-04-25T05:33:36.546Z,97.00
2019-04-25T05:36:05.961Z,96.94
2019-04-25T05:38:33.721Z,96.72
2019-04-25T05:41:03.983Z,96.16
2019-04-25T05:43:33.429Z,96.08
2019-04-25T05:46:01.118Z,95.46
2019-04-25T05:48:28.679Z,94.84
2019-04-25T05:50:56.622Z,94.02
2019-04-25T05:53:24.156Z,93.31
2019-04-25T05:55:52.063Z,93.07
2019-04-25T05:58:20.445Z,92.70
2019-04-25T06:00:48.326Z,92.50
2019-04-25T06:03:15.195Z,91.87
2019-04-25T06:05:43.463Z,91.25
2019-04-25T06:08:11.421Z,90.76
2019-04-25T06:10:45.049Z,89.75
2019-04-25T06:13:30.917Z,88.92
2019-04-25T06:16:00.168Z,88.70
2019-04-25T06:18:32.115Z,87.92
2019-04-25T06:21:03.027Z,86.28
2019-04-25T06:23:48.702Z,83.66
2019-04-25T06:26:26.734Z,82.33
2019-04-25T06:28:53.671Z,83.39
2019-04-25T06:31:16.401Z,83.87
2019-04-25T06:33:44.499Z,84.48
2019-04-25T06:36:11.278Z,82.75
2019-04-25T06:38:38.563Z,82.46
2019-04-25T06:41:06.428Z,83.98
2019-04-25T06:43:34.284Z,85.52
2019-04-25T06:46:20.205Z,86.82
2019-04-25T06:48:53.411Z,88.16
2019-04-25T06:51:22.422Z,87.95
2019-04-25T06:53:49.550Z,88.13
2019-04-25T06:56:17.231Z,88.86
2019-04-25T06:58:44.697Z,88.80
2019-04-25T07:01:13.485Z,89.34
2019-04-25T07:03:40.511Z,89.17
2019-04-25T07:06:07.838Z,89.17
2019-04-25T07:08:35.457Z,87.49
2019-04-25T07:11:03.916Z,85.08
2019-04-25T07:13:34.178Z,83.67
2019-04-25T07:16:00.586Z,82.96
2019-04-25T07:18:32.404Z,81.72
2019-04-25T07:20:57.061Z,78.50
2019-04-25T07:23:25.359Z,79.16
2019-04-25T07:25:54.451Z,76.81
2019-04-25T07:28:31.124Z,74.17
2019-04-25T07:31:06.855Z,66.82
2019-04-25T07:33:36.649Z,62.38
2019-04-25T07:36:04.226Z,63.19
2019-04-25T07:38:31.764Z,60.34
2019-04-25T07:40:58.946Z,57.46
2019-04-25T07:43:25.873Z,58.12
2019-04-25T07:45:53.533Z,55.68
2019-04-25T07:48:22.800Z,57.21
2019-04-25T07:50:50.489Z,54.06
2019-04-25T07:53:17.856Z,53.15
2019-04-25T07:55:45.468Z,55.15
2019-04-25T07:58:14.267Z,51.22
2019-04-25T08:00:42.048Z,44.68
2019-04-25T08:03:08.881Z,45.62
2019-04-25T08:05:36.630Z,48.20
2019-04-25T08:08:04.017Z,46.97
2019-04-25T08:10:34.847Z,44.30
2019-04-25T08:13:03.262Z,43.27
2019-04-25T08:15:38.992Z,43.50
2019-04-25T08:18:08.909Z,41.37
2019-04-25T08:20:37.015Z,39.96
2019-04-25T08:23:04.846Z,42.17
2019-04-25T08:25:33.460Z,36.83
2019-04-25T08:28:01.219Z,37.64
2019-04-25T08:30:28.014Z,38.93
2019-04-25T08:32:54.844Z,38.27
2019-04-25T08:35:23.981Z,38.52
2019-04-25T08:37:51.154Z,36.72
2019-04-25T08:40:19.165Z,37.00
2019-04-25T08:42:46.523Z,35.50
2019-04-25T08:45:13.937Z,34.89
2019-04-25T08:47:41.846Z,35.13
2019-04-25T08:50:26.893Z,33.68
2019-04-25T08:52:44.302Z,34.04
2019-04-25T08:55:28.599Z,34.75
2019-04-25T08:58:00.801Z,34.27
2019-04-25T09:00:36.987Z,32.32
2019-04-25T09:03:05.944Z,34.11
2019-04-25T09:05:36.454Z,32.99
2019-04-25T09:08:04.183Z,33.32
2019-04-25T09:10:32.723Z,32.95
2019-04-25T09:13:00.469Z,32.29
2019-04-25T09:15:27.663Z,33.52
2019-04-25T09:17:54.889Z,33.66
2019-04-25T09:20:23.529Z,33.25
2019-04-25T09:22:50.917Z,31.08
2019-04-25T09:25:17.991Z,31.09
2019-04-25T09:27:45.854Z,31.74
2019-04-25T09:30:14.465Z,32.33
2019-04-25T09:32:44.421Z,32.83
2019-04-25T09:35:11.176Z,31.69
2019-04-25T09:37:38.741Z,31.00
2019-04-25T09:40:11.210Z,31.65
2019-04-25T09:42:39.370Z,31.16
2019-04-25T09:45:09.476Z,31.28
2019-04-25T09:47:38.066Z,31.42
2019-04-25T09:50:07.401Z,30.79
2019-04-25T09:52:36.000Z,30.47
2019-04-25T09:55:07.693Z,31.12
2019-04-25T09:57:48.201Z,30.57
2019-04-25T10:00:17.382Z,30.85
2019-04-25T10:02:44.850Z,30.60
2019-04-25T10:05:11.731Z,30.92
2019-04-25T10:07:38.679Z,31.46
2019-04-25T10:10:06.396Z,31.54
2019-04-25T10:12:34.210Z,32.08
2019-04-25T10:15:04.622Z,31.76
2019-04-25T10:17:31.542Z,32.05
2019-04-25T10:19:59.082Z,30.58
2019-04-25T10:22:27.039Z,31.73
2019-04-25T10:25:00.215Z,31.91
2019-04-25T10:27:24.228Z,31.57
2019-04-25T10:29:56.321Z,31.91
2019-04-25T10:32:20.122Z,31.04
2019-04-25T10:34:46.992Z,29.78
2019-04-25T10:37:14.918Z,30.48
2019-04-25T10:39:43.566Z,30.32
2019-04-25T10:42:11.145Z,30.59
2019-04-25T10:44:39.250Z,29.14
2019-04-25T10:47:07.008Z,29.51
2019-04-25T10:49:34.470Z,29.35
2019-04-25T10:52:01.470Z,29.44
2019-04-25T10:54:28.525Z,30.03
2019-04-25T10:56:55.288Z,30.35
2019-04-25T10:59:23.617Z,29.42
2019-04-25T11:01:50.858Z,29.62
2019-04-25T11:04:22.260Z,29.63
2019-04-25T11:06:49.332Z,28.96
2019-04-25T11:09:19.623Z,29.51
2019-04-25T11:11:46.956Z,28.03
2019-04-25T11:14:14.257Z,28.88
2019-04-25T11:16:41.108Z,28.75
2019-04-25T11:19:07.928Z,27.58
2019-04-25T11:21:35.310Z,28.85
2019-04-25T11:24:04.091Z,28.66
2019-04-25T11:26:31.544Z,28.09
2019-04-25T11:28:58.657Z,28.27
2019-04-25T11:31:27.230Z,28.55
2019-04-25T11:33:54.575Z,28.54
2019-04-25T11:36:21.840Z,28.05
2019-04-25T11:39:07.956Z,28.78
2019-04-25T11:41:35.300Z,28.73
2019-04-25T11:44:03.483Z,28.51
2019-04-25T11:46:30.869Z,28.06
2019-04-25T11:48:58.118Z,27.14
2019-04-25T11:51:24.864Z,26.80
2019-04-25T11:53:51.863Z,26.98
2019-04-25T11:56:18.618Z,25.89
2019-04-25T11:58:47.551Z,27.31
2019-04-25T12:01:15.151Z,27.33
2019-04-25T12:03:42.084Z,26.45
2019-04-25T12:06:11.151Z,25.32
2019-04-25T12:08:38.448Z,26.07
2019-04-25T12:11:06.024Z,25.41
2019-04-25T12:13:34.532Z,25.16
2019-04-25T12:16:02.014Z,25.83
2019-04-25T12:18:29.079Z,26.00
2019-04-25T12:20:57.990Z,24.92
2019-04-25T12:23:24.976Z,24.61
2019-04-25T12:25:54.030Z,24.62
2019-04-25T12:28:20.816Z,24.24
2019-04-25T12:30:48.175Z,23.99
2019-04-25T12:33:20.920Z,24.43
2019-04-25T12:35:44.512Z,23.39
2019-04-25T12:38:11.510Z,24.03
2019-04-25T12:40:38.390Z,24.11
2019-04-25T12:43:05.435Z,24.47
2019-04-25T12:45:34.469Z,23.98
2019-04-25T12:48:06.230Z,23.56
2019-04-25T12:50:33.677Z,23.28
2019-04-25T12:53:00.617Z,24.19
2019-04-25T12:55:28.389Z,24.62
2019-04-25T12:57:56.531Z,24.72
2019-04-25T13:00:25.945Z,24.37
2019-04-25T13:02:54.005Z,25.26
2019-04-25T13:05:21.115Z,23.31
2019-04-25T13:07:48.228Z,23.69
2019-04-25T13:10:15.370Z,23.66
2019-04-25T13:12:44.283Z,22.98
2019-04-25T13:15:11.480Z,23.49
2019-04-25T13:17:38.401Z,23.55
2019-04-25T13:20:07.576Z,23.47
2019-04-25T13:22:34.904Z,23.28
2019-04-25T13:25:03.445Z,23.27
2019-04-25T13:27:44.816Z,23.49
2019-04-25T13:30:31.534Z,22.92
2019-04-25T13:33:09.333Z,22.76
2019-04-25T13:35:37.987Z,23.86
2019-04-25T13:38:05.057Z,24.36
2019-04-25T13:40:31.904Z,24.26
2019-04-25T13:42:58.752Z,24.13
2019-04-25T13:45:26.583Z,24.95
2019-04-25T13:47:53.758Z,25.35
2019-04-25T13:50:21.588Z,24.46
2019-04-25T13:52:48.974Z,25.46
2019-04-25T13:55:16.261Z,25.17
2019-04-25T13:57:42.983Z,25.10
2019-04-25T14:00:10.547Z,25.83
2019-04-25T14:02:37.378Z,25.44
2019-04-25T14:05:06.304Z,25.97
2019-04-25T14:07:33.283Z,25.95
2019-04-25T14:10:00.231Z,26.02
2019-04-25T14:12:28.917Z,26.15
2019-04-25T14:14:56.544Z,25.93
2019-04-25T14:17:35.674Z,24.41
2019-04-25T14:20:10.353Z,24.95
2019-04-25T14:22:37.325Z,24.06
2019-04-25T14:25:05.173Z,24.48
2019-04-25T14:27:33.957Z,24.71
2019-04-25T14:30:01.014Z,24.62
2019-04-25T14:32:28.845Z,25.52
2019-04-25T14:34:56.786Z,25.83
2019-04-25T14:37:26.358Z,24.85
2019-04-25T14:39:53.666Z,25.57
2019-04-25T14:42:22.113Z,25.63
2019-04-25T14:44:50.258Z,24.80
2019-04-25T14:47:17.348Z,26.24
2019-04-25T14:49:44.081Z,26.60
2019-04-25T14:52:11.326Z,27.23
2019-04-25T14:54:42.555Z,26.90
2019-04-25T14:57:14.188Z,26.66
2019-04-25T14:59:41.409Z,25.35
2019-04-25T15:02:08.325Z,25.62
2019-04-25T15:04:35.318Z,26.12
2019-04-25T15:07:02.265Z,26.33
2019-04-25T15:09:29.590Z,26.74
2019-04-25T15:11:56.317Z,25.25
2019-04-25T15:14:23.664Z,25.36
2019-04-25T15:16:50.817Z,25.31
2019-04-25T15:19:17.613Z,24.79
2019-04-25T15:21:44.417Z,24.83
2019-04-25T15:24:11.677Z,25.24
2019-04-25T15:26:40.362Z,24.64
2019-04-25T15:29:07.101Z,25.02
2019-04-25T15:31:33.819Z,24.39
2019-04-25T15:34:02.372Z,24.69
2019-04-25T15:36:37.717Z,24.67
2019-04-25T15:39:24.936Z,24.54
2019-04-25T15:41:56.404Z,24.86
2019-04-25T15:44:40.808Z,24.94
2019-04-25T15:47:09.498Z,25.17
2019-04-25T15:49:36.996Z,25.25
2019-04-25T15:52:05.735Z,25.45
2019-04-25T15:54:33.872Z,25.33
2019-04-25T15:57:00.706Z,25.34
2019-04-25T15:59:29.030Z,25.04
2019-04-25T16:02:07.483Z,25.35
2019-04-25T16:04:25.715Z,25.81
2019-04-25T16:06:52.711Z,26.06
2019-04-25T16:09:19.514Z,26.20
2019-04-25T16:11:46.802Z,26.56
2019-04-25T16:14:13.521Z,26.94
2019-04-25T16:16:40.455Z,26.70
2019-04-25T16:19:07.763Z,26.36
2019-04-25T16:21:35.471Z,26.53
2019-04-25T16:24:02.411Z,26.53
2019-04-25T16:26:29.630Z,27.31
2019-04-25T16:28:56.419Z,27.34
2019-04-25T16:31:25.186Z,27.79
2019-04-25T16:33:52.366Z,28.64
2019-04-25T16:36:19.412Z,30.12
2019-04-25T16:38:46.461Z,30.88
2019-04-25T16:41:14.231Z,31.56
2019-04-25T16:43:43.246Z,32.19
2019-04-25T16:46:09.949Z,32.38
2019-04-25T16:48:37.268Z,32.73
2019-04-25T16:51:04.400Z,32.84
2019-04-25T16:53:31.435Z,33.00
2019-04-25T16:55:59.476Z,33.05
2019-04-25T16:58:27.049Z,33.17
2019-04-25T17:01:00.847Z,33.45
2019-04-25T17:03:29.953Z,33.69
2019-04-25T17:05:57.549Z,34.28
2019-04-25T17:08:24.596Z,34.06
2019-04-25T17:10:51.424Z,34.59
2019-04-25T17:13:18.593Z,34.95
2019-04-25T17:15:56.156Z,35.13
2019-04-25T17:18:27.497Z,35.32
2019-04-25T17:20:59.292Z,35.58
2019-04-25T17:23:26.018Z,35.73
2019-04-25T17:25:53.099Z,35.99
2019-04-25T17:28:19.920Z,36.07
2019-04-25T17:30:48.902Z,36.31
2019-04-25T17:33:20.519Z,36.50
2019-04-25T17:36:06.198Z,36.97
2019-04-25T17:38:40.331Z,36.94
2019-04-25T17:41:07.474Z,37.30
2019-04-25T17:43:34.957Z,37.68
2019-04-25T17:46:02.800Z,38.02
2019-04-25T17:48:29.827Z,38.28
2019-04-25T17:50:57.095Z,38.54
2019-04-25T17:53:23.828Z,38.72
2019-04-25T17:55:50.989Z,39.00
2019-04-25T17:58:18.602Z,39.17
2019-04-25T18:00:47.321Z,39.14
2019-04-25T18:03:14.809Z,39.39
2019-04-25T18:05:41.640Z,39.34
2019-04-25T18:08:08.874Z,39.52
2019-04-25T18:10:36.157Z,39.64
2019-04-25T18:13:03.604Z,39.74
2019-04-25T18:15:49.202Z,39.97
2019-04-25T18:18:20.691Z,40.26
2019-04-25T18:20:47.659Z,40.49
2019-04-25T18:23:17.128Z,40.63
2019-04-25T18:25:46.107Z,40.90
2019-04-25T18:28:17.775Z,40.98
2019-04-25T18:30:46.191Z,41.18
2019-04-25T18:33:20.450Z,41.21
2019-04-25T18:35:49.191Z,41.19
2019-04-25T18:38:27.028Z,41.25
2019-04-25T18:41:05.439Z,41.60
2019-04-25T18:43:46.937Z,41.68
2019-04-25T18:46:18.579Z,41.66
2019-04-25T18:48:45.396Z,41.84
2019-04-25T18:51:12.093Z,41.72
2019-04-25T18:53:47.367Z,41.78
2019-04-25T18:56:16.791Z,41.82
2019-04-25T18:59:03.414Z,42.04
2019-04-25T19:01:48.725Z,42.32
2019-04-25T19:04:17.976Z,42.54
2019-04-25T19:06:56.165Z,42.75
2019-04-25T19:09:13.428Z,43.06
2019-04-25T19:11:40.902Z,43.09
2019-04-25T19:14:07.880Z,43.46
2019-04-25T19:16:34.810Z,43.94
2019-04-25T19:19:01.723Z,44.30
2019-04-25T19:21:29.138Z,44.60
2019-04-25T19:23:57.159Z,44.27
2019-04-25T19:26:24.040Z,44.99
2019-04-25T19:28:52.053Z,45.27
2019-04-25T19:31:18.876Z,45.48
2019-04-25T19:33:45.612Z,45.32
2019-04-25T19:36:12.531Z,46.09
2019-04-25T19:38:40.657Z,46.18
2019-04-25T19:41:12.617Z,46.60
2019-04-25T19:43:44.568Z,46.66
2019-04-25T19:46:11.417Z,46.29
2019-04-25T19:48:38.437Z,47.01
2019-04-25T19:51:05.509Z,47.25
2019-04-25T19:53:32.426Z,47.02
2019-04-25T19:55:59.188Z,47.04
2019-04-25T19:58:26.228Z,47.18
2019-04-25T20:00:53.150Z,47.23
2019-04-25T20:03:21.813Z,47.40
2019-04-25T20:05:56.600Z,47.33
2019-04-25T20:08:28.158Z,47.48
2019-04-25T20:10:56.871Z,47.31
2019-04-25T20:13:24.450Z,47.71
2019-04-25T20:15:51.785Z,47.68
2019-04-25T20:18:18.837Z,47.64
2019-04-25T20:20:46.050Z,47.63
2019-04-25T20:23:13.348Z,47.62
2019-04-25T20:25:40.354Z,47.46
2019-04-25T20:28:07.056Z,47.48
2019-04-25T20:30:33.793Z,47.44
2019-04-25T20:33:01.258Z,47.67
2019-04-25T20:35:28.117Z,47.79
2019-04-25T20:37:55.628Z,47.50
2019-04-25T20:40:22.779Z,47.47
2019-04-25T20:42:49.858Z,47.69
2019-04-25T20:45:17.120Z,47.61
2019-04-25T20:47:44.426Z,47.78
2019-04-25T20:50:11.278Z,47.53
2019-04-25T20:52:38.307Z,47.74
2019-04-25T20:55:07.370Z,47.89
2019-04-25T20:57:34.410Z,47.92
2019-04-25T21:00:01.136Z,48.08
2019-04-25T21:02:28.391Z,48.28
2019-04-25T21:04:55.264Z,48.14
2019-04-25T21:07:22.062Z,48.12
2019-04-25T21:09:50.017Z,48.28
2019-04-25T21:12:17.123Z,48.65
2019-04-25T21:14:54.707Z,48.82
2019-04-25T21:17:32.567Z,49.00
2019-04-25T21:20:00.781Z,49.00
2019-04-25T21:22:27.597Z,49.10
2019-04-25T21:24:55.677Z,49.21
2019-04-25T21:27:22.644Z,49.08
2019-04-25T21:29:49.487Z,49.33
2019-04-25T21:32:17.947Z,49.77
2019-04-25T21:34:45.244Z,49.72
2019-04-25T21:37:12.547Z,49.95
2019-04-25T21:39:41.877Z,50.06
2019-04-25T21:42:11.810Z,50.19
2019-04-25T21:44:39.025Z,50.37
2019-04-25T21:47:06.093Z,50.27
2019-04-25T21:49:33.556Z,50.25
2019-04-25T21:52:01.186Z,50.20
2019-04-25T21:54:27.995Z,50.20
2019-04-25T21:56:57.427Z,50.20
2019-04-25T21:59:24.486Z,50.17
2019-04-25T22:01:51.657Z,50.00
2019-04-25T22:04:18.905Z,50.36
2019-04-25T22:06:46.378Z,50.31
2019-04-25T22:09:18.617Z,50.61
2019-04-25T22:11:45.727Z,50.48
2019-04-25T22:14:13.381Z,50.61
2019-04-25T22:16:40.613Z,50.69
2019-04-25T22:19:09.888Z,50.60
2019-04-25T22:21:38.243Z,50.61
2019-04-25T22:24:11.190Z,50.92
2019-04-25T22:26:35.422Z,51.15
2019-04-25T22:29:10.706Z,51.21
2019-04-25T22:31:35.183Z,51.30
2019-04-25T22:34:08.691Z,51.61
2019-04-25T22:36:35.717Z,51.75
2019-04-25T22:39:11.128Z,51.91
2019-04-25T22:41:46.667Z,52.69
2019-04-25T22:44:14.318Z,52.93
2019-04-25T22:46:41.931Z,53.62
2019-04-25T22:49:08.944Z,53.42
2019-04-25T22:51:36.081Z,53.48
2019-04-25T22:54:03.754Z,53.83
2019-04-25T22:56:30.809Z,54.30
2019-04-25T22:58:57.744Z,54.86
2019-04-25T23:01:32.365Z,54.46
2019-04-25T23:04:07.346Z,54.49
2019-04-25T23:06:34.564Z,54.57
2019-04-25T23:09:02.667Z,54.72
2019-04-25T23:11:29.880Z,56.03
2019-04-25T23:13:57.955Z,56.92
2019-04-25T23:16:25.231Z,56.29
2019-04-25T23:18:51.939Z,56.26
2019-04-25T23:21:18.879Z,56.16
2019-04-25T23:23:46.484Z,55.74
2019-04-25T23:26:21.308Z,55.22
2019-04-25T23:28:49.380Z,54.72
2019-04-25T23:31:18.553Z,54.67
2019-04-25T23:33:46.156Z,54.11
2019-04-25T23:36:13.348Z,55.09
2019-04-25T23:38:40.168Z,54.91
2019-04-25T23:41:09.319Z,55.20
2019-04-25T23:43:37.342Z,55.83
2019-04-25T23:46:04.185Z,56.30
2019-04-25T23:48:31.645Z,56.49
2019-04-25T23:50:58.456Z,57.25
2019-04-25T23:53:26.135Z,57.37
2019-04-25T23:55:52.864Z,57.77
2019-04-25T23:58:19.998Z,58.30
